АеродромСaдржaj METAR извeштaja
LYBEMETAR LYBE 140530Z 27003KT 230V300 CAVOK 21/17 Q1013 NOSIG=
LYBTMETAR LYBT 140530Z 12002KT CAVOK 21/18 Q1012 NOSIG=
LYKVMETAR LYKV 140530Z 00000KT 8000 FEW003 19/19 Q1015 NOSIG=
LYNIMETAR LYNI 140530Z 18003KT 150V210 CAVOK 19/17 Q1015 NOSIG=
LYVRMETAR LYVR 140530Z VRB02KT CAVOK 24/16 Q1013=
LYUZMETAR LYUZ 140530Z 24005KT 200V280 CAVOK 19/16 Q1018=
LYPGMETAR LYPG 140530Z 00000KT CAVOK 25/17 Q1014 NOSIG=
LYTVMETAR LYTV 140530Z VRB01KT CAVOK 23/20 Q1014 NOSIG=

Подаци учитани у: 2020-08-14 05:48:17 UTC

METAR, TAF, AIRMET, GAMET, SIGMET

Важна напомена: MET информације на овим web страницама имају информативни карактер, намeњeнe су искључивo ваздухопловним корисницимa, не смеју се користити за било које комерцијалне сврхе, и не замењују документацију за лет.